Time;durP1;ratioP1;P1;durP2;ratioP2;P2;SDS_P1;SDS_P2;PMS_P1;PMS_P2;Temp;Humidity;BMP_temperature;BMP_pressure;BME280_temperature;BME280_humidity;BME280_pressure;Samples;Min_cycle;Max_cycle;Signal;HPM_P1;HPM_P2
2022/04/13 00:00:05;;;;;;;0.30;0.30;;;17.70;61.50;;;;;;4965313;28;20055;-14
2022/04/13 00:02:30;;;;;;;0.13;0.13;;;17.60;61.50;;;;;;4981049;28;20054;-12
2022/04/13 00:04:56;;;;;;;0.25;0.25;;;17.70;61.50;;;;;;4958989;28;20050;-12
2022/04/13 00:07:22;;;;;;;0.30;0.30;;;17.70;61.40;;;;;;4967283;28;20073;-13
2022/04/13 00:09:48;;;;;;;0.38;0.38;;;17.70;61.40;;;;;;4964250;28;20046;-13
2022/04/13 00:12:13;;;;;;;0.20;0.20;;;17.60;61.40;;;;;;4972666;28;20142;-13
2022/04/13 00:14:39;;;;;;;0.30;0.30;;;17.60;61.40;;;;;;4979923;28;20571;-13
2022/04/13 00:17:05;;;;;;;0.25;0.25;;;17.60;61.50;;;;;;4968405;28;20081;-13
2022/04/13 00:19:30;;;;;;;0.30;0.30;;;17.60;61.50;;;;;;4971738;28;20075;-13
2022/04/13 00:21:56;;;;;;;0.30;0.30;;;17.60;61.40;;;;;;4967217;28;20089;-13
2022/04/13 00:24:22;;;;;;;0.30;0.30;;;17.60;61.20;;;;;;4975771;28;20053;-14
2022/04/13 00:26:48;;;;;;;0.40;0.40;;;17.60;61.40;;;;;;4972679;28;20051;-14
2022/04/13 00:29:13;;;;;;;0.52;0.52;;;17.60;61.60;;;;;;4976461;28;20050;-13
2022/04/13 00:31:39;;;;;;;0.30;0.30;;;17.60;61.50;;;;;;4988678;28;20831;-13
2022/04/13 00:34:05;;;;;;;0.35;0.30;;;17.60;61.40;;;;;;4978983;28;20511;-13
2022/04/13 00:36:31;;;;;;;0.40;0.40;;;17.60;61.40;;;;;;4974855;28;20399;-13
2022/04/13 00:38:56;;;;;;;0.32;0.30;;;17.60;61.40;;;;;;4974977;28;20050;-12
2022/04/13 00:41:22;;;;;;;0.30;0.30;;;17.60;61.50;;;;;;4962310;28;20050;-12
2022/04/13 00:44:04;;;;;;;0.20;0.20;;;17.60;61.40;;;;;;4979007;28;20058;-12
2022/04/13 00:46:31;;;;;;;0.30;0.30;;;17.60;62.10;;;;;;4979690;28;20116;-12
2022/04/13 00:48:57;;;;;;;0.40;0.40;;;17.60;61.20;;;;;;4980381;28;20058;-12
2022/04/13 00:51:23;;;;;;;0.38;0.38;;;17.60;61.20;;;;;;4973272;28;20609;-14
2022/04/13 00:53:49;;;;;;;0.30;0.30;;;17.60;61.30;;;;;;4976291;28;20503;-14
2022/04/13 00:56:15;;;;;;;0.40;0.40;;;17.60;61.40;;;;;;4972003;28;20427;-13
2022/04/13 00:58:40;;;;;;;0.30;0.30;;;17.60;61.40;;;;;;4973967;28;20055;-13
2022/04/13 01:01:06;;;;;;;0.30;0.30;;;17.50;61.40;;;;;;4974661;28;20105;-13
2022/04/13 01:03:31;;;;;;;0.40;0.40;;;17.60;61.50;;;;;;4973845;28;20042;-14
2022/04/13 01:05:58;;;;;;;0.35;0.35;;;17.60;61.50;;;;;;4980441;28;20492;-12
2022/04/13 01:08:25;;;;;;;0.30;0.30;;;17.60;61.40;;;;;;4960765;28;20601;-13
2022/04/13 01:10:51;;;;;;;0.30;0.30;;;17.50;61.50;;;;;;4962169;28;20051;-13
2022/04/13 01:13:17;;;;;;;0.40;0.40;;;17.50;61.50;;;;;;4974849;28;20038;-13
2022/04/13 01:15:43;;;;;;;0.40;0.40;;;17.50;61.70;;;;;;4974951;28;20704;-13
2022/04/13 01:18:08;;;;;;;0.40;0.40;;;17.50;61.40;;;;;;4975303;28;20137;-13
2022/04/13 01:20:35;;;;;;;0.20;0.20;;;17.50;61.40;;;;;;4971430;28;20054;-12
2022/04/13 01:23:01;;;;;;;0.30;0.30;;;17.50;61.50;;;;;;4961085;28;20146;-13
2022/04/13 01:25:28;;;;;;;0.20;0.20;;;17.50;61.50;;;;;;4974632;28;20490;-13
2022/04/13 01:27:54;;;;;;;0.30;0.30;;;17.50;61.50;;;;;;4975108;28;20050;-13
2022/04/13 01:30:19;;;;;;;1.05;0.20;;;17.50;61.60;;;;;;4980368;28;20594;-13
2022/04/13 01:32:45;;;;;;;0.20;0.20;;;17.50;61.70;;;;;;4980646;28;20582;-13
2022/04/13 01:35:10;;;;;;;0.40;0.40;;;17.50;61.50;;;;;;4974691;28;20540;-13
2022/04/13 01:37:36;;;;;;;0.32;0.32;;;17.50;61.60;;;;;;4973601;28;20046;-13
2022/04/13 01:40:02;;;;;;;0.40;0.40;;;17.50;61.50;;;;;;4967398;28;20054;-13
2022/04/13 01:42:28;;;;;;;0.20;0.20;;;17.50;61.40;;;;;;4961422;28;20101;-13
2022/04/13 01:44:54;;;;;;;0.30;0.30;;;17.50;61.40;;;;;;4974782;28;20043;-12
2022/04/13 01:47:20;;;;;;;0.40;0.30;;;17.50;61.40;;;;;;4970189;28;20150;-14
2022/04/13 01:49:45;;;;;;;0.38;0.38;;;17.50;61.40;;;;;;4966999;28;20032;-14
2022/04/13 01:52:11;;;;;;;0.25;0.25;;;17.50;61.30;;;;;;4968636;28;20050;-13
2022/04/13 01:54:36;;;;;;;0.30;0.30;;;17.50;61.50;;;;;;4980284;28;20042;-13
2022/04/13 01:57:02;;;;;;;0.20;0.20;;;17.50;61.50;;;;;;4979502;28;20097;-12
2022/04/13 01:59:28;;;;;;;0.20;0.20;;;17.50;61.60;;;;;;4974329;28;20077;-13
2022/04/13 02:01:53;;;;;;;0.50;0.40;;;17.60;61.40;;;;;;4976400;28;20043;-13
2022/04/13 02:04:23;;;;;;;0.47;0.30;;;17.60;61.20;;;;;;4964527;28;20098;-13
2022/04/13 02:06:48;;;;;;;0.50;0.30;;;17.60;61.10;;;;;;4961919;28;20046;-13
2022/04/13 02:09:15;;;;;;;0.40;0.40;;;17.50;61.40;;;;;;4978202;28;20050;-12
2022/04/13 02:11:41;;;;;;;0.30;0.30;;;17.50;61.30;;;;;;4976972;28;20086;-13
2022/04/13 02:14:07;;;;;;;0.20;0.20;;;17.50;61.40;;;;;;4960150;28;20050;-13
2022/04/13 02:16:34;;;;;;;0.40;0.40;;;17.50;61.50;;;;;;4962781;28;20039;-13
2022/04/13 02:18:59;;;;;;;0.22;0.22;;;17.40;61.50;;;;;;4987527;28;20046;-13
2022/04/13 02:21:25;;;;;;;0.20;0.20;;;17.40;61.50;;;;;;4972161;28;20062;-13
2022/04/13 02:23:51;;;;;;;0.40;0.40;;;17.50;61.60;;;;;;4958286;28;20051;-13
2022/04/13 02:26:17;;;;;;;0.32;0.32;;;17.50;61.50;;;;;;4958512;28;20078;-13
2022/04/13 02:28:43;;;;;;;0.35;0.35;;;17.40;61.50;;;;;;4977222;28;20049;-14
2022/04/13 02:31:08;;;;;;;0.20;0.20;;;17.40;61.50;;;;;;4977772;28;20142;-12
2022/04/13 02:33:34;;;;;;;0.35;0.22;;;17.40;61.50;;;;;;4976543;28;20046;-14
2022/04/13 02:36:00;;;;;;;0.30;0.30;;;17.50;61.40;;;;;;4977540;28;20114;-12
2022/04/13 02:38:26;;;;;;;0.30;0.30;;;17.40;61.40;;;;;;4976860;28;20043;-13
2022/04/13 02:40:52;;;;;;;0.47;0.43;;;17.40;61.50;;;;;;4982025;28;20073;-12
2022/04/13 02:43:18;;;;;;;0.82;0.43;;;17.40;61.60;;;;;;4969266;28;20137;-13
2022/04/13 02:45:43;;;;;;;0.20;0.20;;;17.40;61.50;;;;;;4959273;28;20047;-12
2022/04/13 02:48:09;;;;;;;0.40;0.40;;;17.40;61.70;;;;;;4977464;28;20043;-13
2022/04/13 02:50:35;;;;;;;0.47;0.47;;;17.40;61.50;;;;;;4976853;28;20158;-12
2022/04/13 02:53:00;;;;;;;0.20;0.20;;;17.40;61.50;;;;;;4983196;28;20042;-13
2022/04/13 02:55:26;;;;;;;0.32;0.32;;;17.40;61.50;;;;;;4996270;28;20042;-12
2022/04/13 02:57:51;;;;;;;0.30;0.30;;;17.40;61.40;;;;;;4991298;28;20042;-14
2022/04/13 03:00:17;;;;;;;0.40;0.40;;;17.40;61.50;;;;;;4990494;28;20050;-13
2022/04/13 03:02:44;;;;;;;0.30;0.30;;;17.40;61.40;;;;;;4986708;28;20077;-12
2022/04/13 03:05:10;;;;;;;0.50;0.50;;;17.40;61.50;;;;;;4977084;28;20512;-13
2022/04/13 03:07:36;;;;;;;0.40;0.40;;;17.40;61.40;;;;;;4976221;28;20042;-13
2022/04/13 03:10:04;;;;;;;0.40;0.40;;;17.40;61.50;;;;;;4985318;28;20046;-14
2022/04/13 03:12:32;;;;;;;0.30;0.30;;;17.40;61.50;;;;;;4975950;28;20038;-13
2022/04/13 03:14:58;;;;;;;0.40;0.40;;;17.40;61.50;;;;;;4985547;28;20042;-13
2022/04/13 03:17:23;;;;;;;0.30;0.30;;;17.40;61.40;;;;;;4984704;28;20093;-13
2022/04/13 03:19:49;;;;;;;0.20;0.20;;;17.40;61.50;;;;;;4976301;28;20042;-12
2022/04/13 03:22:15;;;;;;;0.30;0.30;;;17.40;61.50;;;;;;4990256;28;20057;-14
2022/04/13 03:24:40;;;;;;;0.30;0.30;;;17.40;61.60;;;;;;4995719;28;20066;-13
2022/04/13 03:27:06;;;;;;;0.47;0.30;;;17.40;61.50;;;;;;4996322;28;20042;-13
2022/04/13 03:29:32;;;;;;;0.20;0.20;;;17.40;61.50;;;;;;4994128;28;20416;-13
2022/04/13 03:31:58;;;;;;;0.77;0.40;;;17.40;61.50;;;;;;4996286;28;20049;-13
2022/04/13 03:34:23;;;;;;;0.30;0.30;;;17.40;61.50;;;;;;4996180;28;20050;-13
2022/04/13 03:36:49;;;;;;;0.35;0.35;;;17.30;61.50;;;;;;4995283;28;20049;-13
2022/04/13 03:39:15;;;;;;;0.30;0.30;;;17.40;61.50;;;;;;4986488;28;20493;-12
2022/04/13 03:41:41;;;;;;;0.45;0.40;;;17.30;61.50;;;;;;4975620;28;20508;-13
2022/04/13 03:44:07;;;;;;;0.40;0.40;;;17.30;61.50;;;;;;4976145;28;20054;-12
2022/04/13 03:46:33;;;;;;;0.40;0.28;;;17.30;61.60;;;;;;4975543;28;20039;-13
2022/04/13 03:48:59;;;;;;;0.35;0.35;;;17.30;61.70;;;;;;4988465;28;20508;-13
2022/04/13 03:51:24;;;;;;;0.40;0.40;;;17.30;61.60;;;;;;4995810;28;20096;-13
2022/04/13 03:53:50;;;;;;;0.40;0.40;;;17.30;61.70;;;;;;4995250;28;20050;-13
2022/04/13 03:56:16;;;;;;;0.45;0.45;;;17.30;61.60;;;;;;4995948;28;20042;-14
2022/04/13 03:58:41;;;;;;;0.30;0.30;;;17.30;61.70;;;;;;4993680;28;20050;-13
2022/04/13 04:01:08;;;;;;;0.35;0.30;;;17.30;61.70;;;;;;4995939;28;20073;-13
2022/04/13 04:03:37;;;;;;;0.25;0.25;;;17.30;61.80;;;;;;4993652;28;20046;-13
2022/04/13 04:06:03;;;;;;;0.20;0.20;;;17.30;61.80;;;;;;4995991;28;20050;-13
2022/04/13 04:08:29;;;;;;;0.30;0.30;;;17.30;61.70;;;;;;4995469;28;20052;-13
2022/04/13 04:10:54;;;;;;;0.43;0.43;;;17.30;61.80;;;;;;4982076;28;20669;-14
2022/04/13 04:13:20;;;;;;;1.02;0.65;;;17.30;61.70;;;;;;4975819;28;20047;-14
2022/04/13 04:15:46;;;;;;;0.50;0.50;;;17.30;61.90;;;;;;4975798;28;20504;-13
2022/04/13 04:18:12;;;;;;;0.30;0.25;;;17.30;61.90;;;;;;4976304;28;20054;-13
2022/04/13 04:20:37;;;;;;;0.30;0.30;;;17.30;61.90;;;;;;4990969;28;20097;-12
2022/04/13 04:23:03;;;;;;;0.40;0.40;;;17.20;61.80;;;;;;4995513;28;20050;-13
2022/04/13 04:25:29;;;;;;;0.30;0.30;;;17.20;61.80;;;;;;4995786;28;20066;-13
2022/04/13 04:27:54;;;;;;;0.30;0.30;;;17.20;61.80;;;;;;4995245;28;20046;-12
2022/04/13 04:30:20;;;;;;;0.30;0.30;;;17.30;61.80;;;;;;4976213;28;20046;-13
2022/04/13 04:32:46;;;;;;;0.30;0.30;;;17.30;61.80;;;;;;4975735;28;20133;-14
2022/04/13 04:35:11;;;;;;;0.38;0.38;;;17.20;61.80;;;;;;4980615;28;20403;-13
2022/04/13 04:37:37;;;;;;;0.75;0.25;;;17.20;61.80;;;;;;4994772;28;20042;-14
2022/04/13 04:40:03;;;;;;;0.43;0.30;;;17.20;61.80;;;;;;4995609;28;20070;-13
2022/04/13 04:42:29;;;;;;;0.40;0.30;;;17.30;61.70;;;;;;4977941;28;20143;-12
2022/04/13 04:44:58;;;;;;;0.20;0.20;;;17.20;61.70;;;;;;4971213;28;20129;-13
2022/04/13 04:47:24;;;;;;;0.30;0.20;;;17.20;61.80;;;;;;4995548;28;20042;-13
2022/04/13 04:49:49;;;;;;;0.47;0.30;;;17.20;61.80;;;;;;4982887;28;20507;-13
2022/04/13 04:52:15;;;;;;;0.30;0.30;;;17.20;61.90;;;;;;4989761;28;20508;-13
2022/04/13 04:54:41;;;;;;;0.30;0.30;;;17.20;61.70;;;;;;4994841;28;20039;-13
2022/04/13 04:57:06;;;;;;;0.30;0.30;;;17.20;61.90;;;;;;4985853;28;20058;-13
2022/04/13 04:59:32;;;;;;;0.40;0.40;;;17.20;61.90;;;;;;4978448;28;20099;-13
2022/04/13 05:01:57;;;;;;;0.40;0.40;;;17.20;61.90;;;;;;4979078;28;20050;-13
2022/04/13 05:04:23;;;;;;;0.30;0.30;;;17.20;61.80;;;;;;4965356;28;20054;-13
2022/04/13 05:06:48;;;;;;;0.30;0.30;;;17.20;61.90;;;;;;4967084;28;20046;-12
2022/04/13 05:09:17;;;;;;;0.98;0.45;;;17.20;61.70;;;;;;4979296;28;20110;-13
2022/04/13 05:11:43;;;;;;;0.30;0.30;;;17.20;61.70;;;;;;4972283;28;20073;-12
2022/04/13 05:14:09;;;;;;;0.35;0.32;;;17.20;61.80;;;;;;4959950;28;20047;-13
2022/04/13 05:16:34;;;;;;;0.35;0.35;;;17.20;61.80;;;;;;4982151;28;20045;-13
2022/04/13 05:19:00;;;;;;;0.30;0.30;;;17.20;61.70;;;;;;4978501;28;20589;-13
2022/04/13 05:21:26;;;;;;;1.15;0.40;;;17.20;61.70;;;;;;4978765;28;20503;-14
2022/04/13 05:23:51;;;;;;;0.28;0.20;;;17.20;61.60;;;;;;4978151;28;20527;-13
2022/04/13 05:26:18;;;;;;;0.30;0.20;;;17.20;61.80;;;;;;4979093;28;20054;-12
2022/04/13 05:28:45;;;;;;;0.30;0.30;;;17.20;61.70;;;;;;4978432;28;20134;-12
2022/04/13 05:31:11;;;;;;;0.30;0.30;;;17.10;61.70;;;;;;4978986;28;20070;-13
2022/04/13 05:33:36;;;;;;;0.30;0.30;;;17.20;61.70;;;;;;4977260;28;20559;-13
2022/04/13 05:36:03;;;;;;;0.30;0.30;;;17.20;61.80;;;;;;4959585;28;20058;-13
2022/04/13 05:38:28;;;;;;;0.30;0.30;;;17.20;61.80;;;;;;4966288;28;20121;-13
2022/04/13 05:40:54;;;;;;;0.20;0.20;;;17.10;61.70;;;;;;4997669;28;20085;-13
2022/04/13 05:43:20;;;;;;;0.20;0.20;;;17.20;61.80;;;;;;4996633;28;20042;-12
2022/04/13 05:45:45;;;;;;;0.20;0.20;;;17.10;61.80;;;;;;4997495;28;20103;-13
2022/04/13 05:48:11;;;;;;;0.20;0.20;;;17.10;61.80;;;;;;4998066;28;20046;-14
2022/04/13 05:50:36;;;;;;;0.20;0.20;;;17.20;61.80;;;;;;4997478;28;20050;-16
2022/04/13 05:53:02;;;;;;;0.17;0.17;;;17.20;61.70;;;;;;4989458;28;20049;-13
2022/04/13 05:55:28;;;;;;;0.20;0.20;;;17.10;61.70;;;;;;4978566;28;20416;-13
2022/04/13 05:57:54;;;;;;;0.57;0.30;;;17.10;61.60;;;;;;4977806;28;20639;-13
2022/04/13 06:00:20;;;;;;;0.30;0.30;;;17.10;61.70;;;;;;4978392;28;20046;-12
2022/04/13 06:02:45;;;;;;;0.15;0.15;;;17.10;61.60;;;;;;4977089;28;20042;-13
2022/04/13 06:05:11;;;;;;;0.40;0.40;;;17.10;61.80;;;;;;4971780;28;20575;-14
2022/04/13 06:07:37;;;;;;;0.20;0.20;;;17.10;61.80;;;;;;4629490;28;10000531;-15
2022/04/13 06:10:04;;;;;;;0.20;0.20;;;17.10;61.90;;;;;;4969661;28;20043;-12
2022/04/13 06:12:29;;;;;;;0.55;0.30;;;17.10;61.80;;;;;;4971241;28;20038;-13
2022/04/13 06:15:04;;;;;;;2.78;0.38;;;17.10;61.70;;;;;;4964367;28;20074;-13
2022/04/13 06:17:30;;;;;;;0.40;0.40;;;17.10;61.80;;;;;;4974345;28;20050;-13
2022/04/13 06:19:55;;;;;;;1.48;0.38;;;17.20;61.50;;;;;;4972950;28;20047;-14
2022/04/13 06:22:21;;;;;;;1.98;0.40;;;17.10;61.80;;;;;;4979700;28;20341;-13
2022/04/13 06:24:51;;;;;;;1.45;0.30;;;17.10;61.60;;;;;;4965881;28;20146;-13
2022/04/13 06:27:16;;;;;;;0.30;0.30;;;17.10;61.80;;;;;;4971582;28;20054;-13
2022/04/13 06:29:42;;;;;;;0.32;0.32;;;17.10;61.50;;;;;;4971044;28;20039;-12
2022/04/13 06:32:08;;;;;;;0.40;0.40;;;17.20;61.60;;;;;;4971782;28;20046;-13
2022/04/13 06:34:34;;;;;;;0.40;0.30;;;17.10;61.70;;;;;;4966651;28;20096;-12
2022/04/13 06:36:59;;;;;;;3.50;0.50;;;17.10;61.60;;;;;;4984304;28;20193;-12
2022/04/13 06:39:25;;;;;;;0.30;0.30;;;17.10;61.60;;;;;;4967660;28;20053;-13
2022/04/13 06:41:50;;;;;;;0.30;0.30;;;17.20;61.70;;;;;;4971267;28;20047;-13
2022/04/13 06:44:16;;;;;;;1.30;0.30;;;17.20;61.70;;;;;;4972597;28;20057;-12
2022/04/13 06:46:41;;;;;;;0.25;0.25;;;17.20;61.40;;;;;;4968686;28;20047;-13
2022/04/13 06:49:07;;;;;;;0.20;0.20;;;17.20;61.40;;;;;;4965849;28;20049;-12
2022/04/13 06:51:33;;;;;;;0.32;0.32;;;17.20;61.60;;;;;;4988590;28;20058;-12
2022/04/13 06:53:59;;;;;;;0.30;0.20;;;17.10;61.50;;;;;;4962324;28;20078;-13
2022/04/13 06:56:24;;;;;;;0.22;0.22;;;17.20;61.40;;;;;;4971585;28;20237;-13
2022/04/13 06:58:50;;;;;;;0.30;0.30;;;17.20;61.60;;;;;;4975523;28;20558;-13
2022/04/13 07:01:16;;;;;;;0.30;0.30;;;17.10;61.60;;;;;;4977107;28;20047;-13
2022/04/13 07:03:41;;;;;;;1.65;0.40;;;17.10;61.60;;;;;;4975613;28;20038;-15
2022/04/13 07:06:07;;;;;;;0.40;0.40;;;17.10;61.80;;;;;;4956227;28;20057;-15
2022/04/13 07:08:32;;;;;;;0.40;0.40;;;17.20;61.70;;;;;;4958534;28;20138;-14
2022/04/13 07:10:58;;;;;;;0.25;0.20;;;17.20;61.60;;;;;;4960113;28;20594;-14
2022/04/13 07:13:24;;;;;;;0.38;0.35;;;17.20;61.70;;;;;;4958927;28;20054;-13
2022/04/13 07:15:52;;;;;;;0.20;0.20;;;17.20;61.50;;;;;;4955689;28;20062;-13
2022/04/13 07:18:18;;;;;;;1.20;0.30;;;17.20;61.30;;;;;;4958481;28;20110;-13
2022/04/13 07:20:44;;;;;;;0.40;0.40;;;17.30;61.10;;;;;;4956736;28;20114;-13
2022/04/13 07:23:09;;;;;;;0.82;0.30;;;17.30;61.20;;;;;;4958014;28;20058;-13
2022/04/13 07:25:35;;;;;;;0.32;0.30;;;17.30;61.10;;;;;;4956411;28;20058;-13
2022/04/13 07:28:01;;;;;;;0.40;0.30;;;17.30;60.90;;;;;;4957731;28;20586;-14
2022/04/13 07:30:26;;;;;;;0.30;0.30;;;17.40;61.00;;;;;;4958580;28;20070;-14
2022/04/13 07:32:52;;;;;;;0.30;0.30;;;17.40;60.90;;;;;;4957071;28;20190;-15
2022/04/13 07:35:18;;;;;;;0.40;0.40;;;17.50;60.90;;;;;;4955968;28;21064;-14
2022/04/13 07:37:44;;;;;;;1.10;0.30;;;17.50;60.70;;;;;;4957576;28;20158;-15
2022/04/13 07:40:11;;;;;;;0.30;0.30;;;17.50;60.80;;;;;;4958905;28;20054;-15
2022/04/13 07:42:36;;;;;;;0.50;0.30;;;17.70;60.00;;;;;;4958396;28;20051;-15
2022/04/13 07:45:03;;;;;;;0.30;0.30;;;17.80;59.80;;;;;;4955195;28;20062;-13
2022/04/13 07:47:29;;;;;;;0.20;0.20;;;18.00;59.40;;;;;;4958300;28;20403;-14
2022/04/13 07:49:54;;;;;;;0.10;0.10;;;18.20;58.90;;;;;;4958021;28;20129;-15
2022/04/13 07:52:20;;;;;;;0.40;0.40;;;18.50;58.30;;;;;;4958221;28;20057;-15
2022/04/13 07:54:45;;;;;;;0.30;0.30;;;18.50;58.40;;;;;;4953701;28;20579;-14
2022/04/13 07:57:11;;;;;;;0.30;0.30;;;18.20;58.80;;;;;;4958442;28;20495;-14
2022/04/13 07:59:37;;;;;;;0.20;0.20;;;18.10;59.10;;;;;;4958799;28;20874;-14
2022/04/13 08:02:04;;;;;;;0.35;0.35;;;18.00;59.40;;;;;;4956908;28;20145;-15
2022/04/13 08:04:29;;;;;;;0.95;0.30;;;17.90;59.50;;;;;;4956790;28;20082;-15
2022/04/13 08:06:55;;;;;;;0.40;0.30;;;17.90;59.70;;;;;;4954631;28;20135;-15
2022/04/13 08:09:21;;;;;;;0.30;0.30;;;17.80;59.70;;;;;;4958097;28;20104;-14
2022/04/13 08:11:46;;;;;;;0.20;0.20;;;17.80;59.80;;;;;;4957469;28;20057;-16
2022/04/13 08:14:12;;;;;;;0.32;0.32;;;17.80;59.90;;;;;;4958118;28;20207;-14
2022/04/13 08:16:37;;;;;;;0.20;0.20;;;17.70;59.80;;;;;;4952866;28;20082;-14
2022/04/13 08:19:05;;;;;;;0.30;0.30;;;17.70;59.80;;;;;;4957243;28;20054;-14
2022/04/13 08:21:31;;;;;;;0.20;0.20;;;17.80;60.00;;;;;;4957848;28;20066;-16
2022/04/13 08:23:57;;;;;;;0.80;0.30;;;17.70;59.90;;;;;;4957329;28;20055;-16
2022/04/13 08:26:22;;;;;;;0.63;0.40;;;17.80;59.90;;;;;;4953235;28;20970;-15
2022/04/13 08:28:48;;;;;;;0.47;0.47;;;17.80;59.90;;;;;;4956647;28;20058;-15
2022/04/13 08:31:13;;;;;;;0.38;0.30;;;17.80;59.80;;;;;;4957961;28;20697;-15
2022/04/13 08:33:39;;;;;;;0.35;0.30;;;17.80;59.70;;;;;;4959791;28;20058;-15
2022/04/13 08:36:05;;;;;;;0.30;0.30;;;17.80;60.00;;;;;;4956282;28;22430;-15
2022/04/13 08:38:30;;;;;;;0.40;0.40;;;17.80;59.90;;;;;;4959714;28;20054;-14
2022/04/13 08:41:00;;;;;;;0.20;0.20;;;17.80;59.80;;;;;;4960322;28;20698;-15
2022/04/13 08:43:50;;;;;;;0.30;0.30;;;17.80;59.80;;;;;;4961550;28;20058;-14
2022/04/13 08:46:25;;;;;;;0.38;0.38;;;17.80;59.80;;;;;;4959729;28;20050;-15
2022/04/13 08:48:52;;;;;;;0.40;0.40;;;17.90;59.90;;;;;;4959536;28;20054;-14
2022/04/13 08:51:17;;;;;;;2.95;0.60;;;17.90;60.10;;;;;;4960262;28;20535;-14
2022/04/13 08:53:43;;;;;;;1.15;0.90;;;17.90;61.20;;;;;;4959517;28;20559;-15
2022/04/13 08:56:10;;;;;;;1.00;1.00;;;17.90;61.20;;;;;;4957053;28;20101;-15
2022/04/13 08:58:49;;;;;;;1.70;0.73;;;18.00;61.20;;;;;;4958851;28;20055;-15
2022/04/13 09:01:34;;;;;;;1.10;0.90;;;18.00;61.00;;;;;;4959610;28;20114;-15
2022/04/13 09:04:00;;;;;;;1.60;1.50;;;18.10;62.20;;;;;;4969153;28;20047;-14
2022/04/13 09:06:27;;;;;;;0.80;0.80;;;18.00;62.40;;;;;;4978472;28;20051;-14
2022/04/13 09:08:56;;;;;;;1.30;1.20;;;18.10;62.40;;;;;;4975407;28;20054;-14
2022/04/13 09:11:22;;;;;;;1.40;1.30;;;18.20;62.00;;;;;;4977903;28;20043;-14
2022/04/13 09:13:49;;;;;;;0.93;0.93;;;18.20;62.90;;;;;;4976619;28;20106;-14
2022/04/13 09:16:15;;;;;;;1.10;1.10;;;18.30;62.10;;;;;;4975253;28;20042;-15
2022/04/13 09:18:41;;;;;;;3.33;1.20;;;18.30;62.80;;;;;;4977120;28;20575;-15
2022/04/13 09:21:07;;;;;;;1.02;1.02;;;18.30;62.80;;;;;;4975891;28;20089;-15
2022/04/13 09:23:33;;;;;;;1.48;1.20;;;18.30;63.10;;;;;;4978712;28;20055;-15
2022/04/13 09:25:58;;;;;;;1.67;1.35;;;18.30;63.30;;;;;;4978249;28;20066;-14
2022/04/13 09:28:25;;;;;;;1.35;1.35;;;18.30;62.80;;;;;;4976329;28;20050;-14
2022/04/13 09:30:52;;;;;;;1.85;1.27;;;18.40;63.30;;;;;;4978172;28;20050;-14
2022/04/13 09:33:17;;;;;;;1.13;1.10;;;18.40;62.70;;;;;;4977870;28;20142;-14
2022/04/13 09:35:43;;;;;;;1.40;1.30;;;18.40;63.00;;;;;;4978665;28;20112;-15
2022/04/13 09:38:09;;;;;;;1.70;1.17;;;18.50;62.70;;;;;;4976860;28;20467;-15
2022/04/13 09:40:41;;;;;;;1.70;1.10;;;18.50;62.70;;;;;;4973250;28;20043;-14
2022/04/13 09:43:14;;;;;;;1.95;1.35;;;18.40;62.60;;;;;;4989505;28;20432;-14
2022/04/13 09:45:43;;;;;;;1.48;1.38;;;18.50;62.50;;;;;;4959877;28;20070;-14
2022/04/13 09:48:13;;;;;;;2.33;1.23;;;18.50;62.30;;;;;;4977656;28;20472;-14
2022/04/13 09:50:39;;;;;;;1.30;1.30;;;18.50;62.60;;;;;;4979913;28;20534;-14
2022/04/13 09:53:06;;;;;;;1.40;1.30;;;18.50;62.90;;;;;;4650105;28;10000511;-15
2022/04/13 09:55:39;;;;;;;1.17;1.10;;;18.50;62.60;;;;;;4970004;28;20043;-15
2022/04/13 09:58:12;;;;;;;1.25;1.10;;;18.60;63.00;;;;;;4964790;28;20071;-14
2022/04/13 10:00:38;;;;;;;1.17;1.08;;;18.50;62.50;;;;;;4975851;28;20050;-15
2022/04/13 10:03:23;;;;;;;1.40;1.00;;;18.60;62.40;;;;;;4981712;28;20581;-15
2022/04/13 10:05:50;;;;;;;1.10;1.00;;;18.60;62.30;;;;;;4969142;28;20074;-16
2022/04/13 10:08:22;;;;;;;1.20;1.10;;;18.60;62.20;;;;;;4972078;28;20083;-14
2022/04/13 10:10:48;;;;;;;1.40;1.23;;;18.60;62.10;;;;;;4967950;28;20038;-15
2022/04/13 10:13:30;;;;;;;1.23;1.08;;;18.60;62.00;;;;;;4963135;28;20085;-14
2022/04/13 10:15:57;;;;;;;1.33;1.23;;;18.60;62.00;;;;;;4977192;28;20043;-15
2022/04/13 10:18:23;;;;;;;3.63;1.02;;;18.70;61.90;;;;;;4963401;28;20058;-14
2022/04/13 10:20:48;;;;;;;0.90;0.90;;;18.70;61.80;;;;;;4974567;28;20058;-15
2022/04/13 10:23:14;;;;;;;1.10;1.00;;;18.70;61.60;;;;;;4963860;28;20141;-14
2022/04/13 10:25:41;;;;;;;1.00;1.00;;;18.70;61.90;;;;;;4968703;28;20118;-14
2022/04/13 10:28:06;;;;;;;1.77;1.10;;;18.70;61.60;;;;;;4976416;28;20910;-15
2022/04/13 10:30:37;;;;;;;0.93;0.93;;;18.70;61.50;;;;;;4973909;28;20034;-14
2022/04/13 10:33:10;;;;;;;1.27;1.05;;;18.70;61.40;;;;;;4967476;28;20054;-14
2022/04/13 10:35:37;;;;;;;1.07;1.07;;;18.70;61.40;;;;;;4967339;28;20047;-14
2022/04/13 10:38:03;;;;;;;1.00;1.00;;;18.70;61.30;;;;;;4973466;28;20270;-15
2022/04/13 10:40:47;;;;;;;0.93;0.93;;;18.70;61.20;;;;;;4976881;28;20053;-15
2022/04/13 10:43:12;;;;;;;1.10;0.87;;;18.70;61.20;;;;;;4974408;28;20046;-15
2022/04/13 10:45:45;;;;;;;0.80;0.80;;;18.70;61.30;;;;;;4967031;28;20287;-15
2022/04/13 10:48:11;;;;;;;0.85;0.70;;;18.70;61.10;;;;;;4974745;28;20047;-16
2022/04/13 10:50:57;;;;;;;0.80;0.80;;;18.70;60.80;;;;;;4965932;28;20046;-15
2022/04/13 10:53:31;;;;;;;0.70;0.70;;;18.70;61.00;;;;;;5010003;28;20050;-15
2022/04/13 10:56:00;;;;;;;1.27;0.80;;;18.70;61.10;;;;;;4973944;28;20042;-14
2022/04/13 10:58:52;;;;;;;0.88;0.60;;;18.80;60.80;;;;;;4977778;28;20054;-14
2022/04/13 11:01:21;;;;;;;0.75;0.75;;;18.70;60.70;;;;;;4975111;28;20053;-14
2022/04/13 11:03:47;;;;;;;0.65;0.63;;;18.80;60.80;;;;;;4975125;28;20043;-15
2022/04/13 11:06:13;;;;;;;0.60;0.50;;;18.80;60.80;;;;;;4990778;28;20064;-14
2022/04/13 11:08:57;;;;;;;0.63;0.63;;;18.80;61.50;;;;;;4975726;28;20050;-15
2022/04/13 11:11:24;;;;;;;0.63;0.63;;;18.70;60.60;;;;;;4988243;28;20094;-15
2022/04/13 11:13:50;;;;;;;0.95;0.60;;;18.80;60.50;;;;;;4991653;28;20043;-14
2022/04/13 11:16:19;;;;;;;0.90;0.90;;;18.80;60.40;;;;;;4973818;28;20124;-14
2022/04/13 11:19:04;;;;;;;0.77;0.50;;;18.80;60.40;;;;;;4968101;28;20046;-14
2022/04/13 11:21:29;;;;;;;3.13;0.70;;;18.80;60.40;;;;;;4969108;28;20066;-14
2022/04/13 11:23:55;;;;;;;0.60;0.60;;;18.80;60.40;;;;;;4967416;28;20047;-15
2022/04/13 11:26:34;;;;;;;0.68;0.68;;;18.80;60.40;;;;;;4967586;28;20054;-14
2022/04/13 11:29:21;;;;;;;0.70;0.70;;;18.80;60.30;;;;;;4975914;28;20403;-13
2022/04/13 11:32:01;;;;;;;0.50;0.50;;;18.80;60.40;;;;;;4966602;28;20078;-14
2022/04/13 11:34:31;;;;;;;0.50;0.50;;;18.80;60.20;;;;;;4974463;28;20124;-13
2022/04/13 11:37:01;;;;;;;0.90;0.90;;;18.80;60.30;;;;;;4974848;28;20528;-13
2022/04/13 11:39:45;;;;;;;0.50;0.50;;;18.80;60.30;;;;;;4975880;28;20039;-13
2022/04/13 11:42:32;;;;;;;;;;;18.80;60.20;;;;;;4971622;28;20069;-15
2022/04/13 11:45:06;;;;;;;0.60;0.60;;;18.80;60.10;;;;;;4984429;28;19917;-13
2022/04/13 11:47:51;;;;;;;0.45;0.40;;;18.80;60.10;;;;;;4975256;28;20043;-13
2022/04/13 11:50:19;;;;;;;0.60;0.50;;;18.80;60.10;;;;;;4974444;28;20050;-17
2022/04/13 11:52:54;;;;;;;0.60;0.60;;;18.90;60.20;;;;;;4969717;28;20051;-14
2022/04/13 11:55:40;;;;;;;0.57;0.57;;;18.80;60.10;;;;;;4970282;28;20057;-13
2022/04/13 11:58:09;;;;;;;0.47;0.47;;;18.80;60.10;;;;;;4975286;28;20043;-13
2022/04/13 12:00:54;;;;;;;0.43;0.43;;;18.80;60.10;;;;;;4975784;28;20049;-13
2022/04/13 12:03:37;;;;;;;0.50;0.50;;;18.90;60.70;;;;;;4970036;28;20407;-13
2022/04/13 12:06:09;;;;;;;0.40;0.40;;;18.90;60.40;;;;;;4974013;28;20130;-13
2022/04/13 12:08:38;;;;;;;0.65;0.65;;;18.90;60.30;;;;;;4977451;28;20043;-13
2022/04/13 12:11:14;;;;;;;0.50;0.45;;;18.90;60.20;;;;;;4977448;28;20082;-13
2022/04/13 12:13:48;;;;;;;0.40;0.40;;;18.90;60.40;;;;;;4979706;28;20163;-13
2022/04/13 12:16:33;;;;;;;0.40;0.40;;;18.90;60.50;;;;;;4977574;28;20138;-14
2022/04/13 12:19:06;;;;;;;0.50;0.50;;;18.90;60.50;;;;;;4979066;28;20046;-15
2022/04/13 12:21:40;;;;;;;0.40;0.40;;;19.00;60.70;;;;;;4944584;28;10000868;-13
2022/04/13 12:24:07;;;;;;;0.60;0.60;;;19.00;60.60;;;;;;4964268;28;20260;-13
2022/04/13 12:26:34;;;;;;;0.50;0.50;;;18.90;60.70;;;;;;4969838;28;20648;-14
2022/04/13 12:29:09;;;;;;;0.40;0.40;;;18.90;60.60;;;;;;4966811;28;20520;-13
2022/04/13 12:31:35;;;;;;;0.63;0.57;;;19.00;60.60;;;;;;5002452;28;20659;-15
2022/04/13 12:34:01;;;;;;;0.60;0.60;;;19.00;60.40;;;;;;4965882;28;20659;-15
2022/04/13 12:36:26;;;;;;;0.50;0.50;;;19.00;60.50;;;;;;4958537;28;20501;-14
2022/04/13 12:38:55;;;;;;;0.50;0.50;;;19.00;60.40;;;;;;4990720;28;20526;-13
2022/04/13 12:41:25;;;;;;;0.88;0.50;;;19.00;60.30;;;;;;4975466;28;20185;-14
2022/04/13 12:43:51;;;;;;;0.40;0.40;;;19.00;60.20;;;;;;4974587;28;20050;-14
2022/04/13 12:46:21;;;;;;;0.63;0.40;;;19.00;60.10;;;;;;4975466;28;20110;-13
2022/04/13 12:48:49;;;;;;;0.40;0.40;;;19.00;60.20;;;;;;4974971;28;20062;-14